sensor_id;sensor_type;location;lat;lon;timestamp;P1;durP1;ratioP1;P2;durP2;ratioP2
53666;SDS011;39568;51.026;5.468;2023-06-19T00:01:02;9.35;;;5.35;;
53666;SDS011;39568;51.026;5.468;2023-06-19T00:03:28;5.85;;;5.28;;
53666;SDS011;39568;51.026;5.468;2023-06-19T00:05:55;5.60;;;4.93;;
53666;SDS011;39568;51.026;5.468;2023-06-19T00:08:22;6.47;;;5.28;;
53666;SDS011;39568;51.026;5.468;2023-06-19T00:10:50;5.30;;;4.80;;
53666;SDS011;39568;51.026;5.468;2023-06-19T00:13:17;4.72;;;4.32;;
53666;SDS011;39568;51.026;5.468;2023-06-19T00:15:44;5.05;;;4.53;;
53666;SDS011;39568;51.026;5.468;2023-06-19T00:18:11;5.25;;;4.22;;
53666;SDS011;39568;51.026;5.468;2023-06-19T00:20:41;4.65;;;4.15;;
53666;SDS011;39568;51.026;5.468;2023-06-19T00:23:10;3.70;;;3.50;;
53666;SDS011;39568;51.026;5.468;2023-06-19T00:25:39;4.13;;;3.78;;
53666;SDS011;39568;51.026;5.468;2023-06-19T00:28:11;4.25;;;3.95;;
53666;SDS011;39568;51.026;5.468;2023-06-19T00:30:45;4.60;;;4.20;;
53666;SDS011;39568;51.026;5.468;2023-06-19T00:33:12;4.95;;;4.55;;
53666;SDS011;39568;51.026;5.468;2023-06-19T00:35:40;5.43;;;5.03;;
53666;SDS011;39568;51.026;5.468;2023-06-19T00:38:07;4.93;;;4.43;;
53666;SDS011;39568;51.026;5.468;2023-06-19T00:40:35;5.22;;;4.78;;
53666;SDS011;39568;51.026;5.468;2023-06-19T00:43:02;5.72;;;4.07;;
53666;SDS011;39568;51.026;5.468;2023-06-19T00:45:30;5.78;;;5.28;;
53666;SDS011;39568;51.026;5.468;2023-06-19T00:47:58;4.75;;;4.40;;
53666;SDS011;39568;51.026;5.468;2023-06-19T00:50:27;4.13;;;3.83;;
53666;SDS011;39568;51.026;5.468;2023-06-19T00:52:56;4.60;;;4.20;;
53666;SDS011;39568;51.026;5.468;2023-06-19T00:55:24;4.47;;;4.28;;
53666;SDS011;39568;51.026;5.468;2023-06-19T00:57:54;5.32;;;4.90;;
53666;SDS011;39568;51.026;5.468;2023-06-19T01:00:30;4.63;;;4.32;;
53666;SDS011;39568;51.026;5.468;2023-06-19T01:02:59;4.65;;;4.32;;
53666;SDS011;39568;51.026;5.468;2023-06-19T01:05:26;4.45;;;4.15;;
53666;SDS011;39568;51.026;5.468;2023-06-19T01:07:55;5.85;;;4.25;;
53666;SDS011;39568;51.026;5.468;2023-06-19T01:10:27;4.13;;;3.72;;
53666;SDS011;39568;51.026;5.468;2023-06-19T01:13:01;4.05;;;3.75;;
53666;SDS011;39568;51.026;5.468;2023-06-19T01:15:34;3.67;;;3.47;;
53666;SDS011;39568;51.026;5.468;2023-06-19T01:18:01;4.57;;;4.18;;
53666;SDS011;39568;51.026;5.468;2023-06-19T01:20:32;7.63;;;3.75;;
53666;SDS011;39568;51.026;5.468;2023-06-19T01:23:06;4.07;;;3.83;;
53666;SDS011;39568;51.026;5.468;2023-06-19T01:25:38;3.58;;;3.20;;
53666;SDS011;39568;51.026;5.468;2023-06-19T01:28:08;5.22;;;3.97;;
53666;SDS011;39568;51.026;5.468;2023-06-19T01:30:37;4.05;;;3.55;;
53666;SDS011;39568;51.026;5.468;2023-06-19T01:33:08;3.75;;;3.45;;
53666;SDS011;39568;51.026;5.468;2023-06-19T01:35:38;3.35;;;3.05;;
53666;SDS011;39568;51.026;5.468;2023-06-19T01:38:10;6.38;;;4.28;;
53666;SDS011;39568;51.026;5.468;2023-06-19T01:40:37;4.15;;;2.90;;
53666;SDS011;39568;51.026;5.468;2023-06-19T01:43:07;7.25;;;3.60;;
53666;SDS011;39568;51.026;5.468;2023-06-19T01:45:37;4.95;;;3.33;;
53666;SDS011;39568;51.026;5.468;2023-06-19T01:48:04;6.22;;;3.47;;
53666;SDS011;39568;51.026;5.468;2023-06-19T01:50:31;3.67;;;3.33;;
53666;SDS011;39568;51.026;5.468;2023-06-19T01:53:02;2.95;;;2.72;;
53666;SDS011;39568;51.026;5.468;2023-06-19T01:55:31;2.47;;;2.30;;
53666;SDS011;39568;51.026;5.468;2023-06-19T02:00:26;3.30;;;3.00;;
53666;SDS011;39568;51.026;5.468;2023-06-19T02:02:53;6.03;;;3.03;;
53666;SDS011;39568;51.026;5.468;2023-06-19T02:05:24;6.15;;;3.45;;
53666;SDS011;39568;51.026;5.468;2023-06-19T02:07:50;10.48;;;3.60;;
53666;SDS011;39568;51.026;5.468;2023-06-19T02:10:17;3.05;;;2.85;;
53666;SDS011;39568;51.026;5.468;2023-06-19T02:12:45;3.38;;;3.08;;
53666;SDS011;39568;51.026;5.468;2023-06-19T02:15:12;3.70;;;3.40;;
53666;SDS011;39568;51.026;5.468;2023-06-19T02:17:39;3.17;;;2.78;;
53666;SDS011;39568;51.026;5.468;2023-06-19T02:20:08;6.82;;;2.92;;
53666;SDS011;39568;51.026;5.468;2023-06-19T02:22:40;11.25;;;4.43;;
53666;SDS011;39568;51.026;5.468;2023-06-19T02:25:07;5.55;;;2.92;;
53666;SDS011;39568;51.026;5.468;2023-06-19T02:27:34;2.92;;;2.72;;
53666;SDS011;39568;51.026;5.468;2023-06-19T02:30:02;6.15;;;4.07;;
53666;SDS011;39568;51.026;5.468;2023-06-19T02:32:30;3.65;;;3.35;;
53666;SDS011;39568;51.026;5.468;2023-06-19T02:34:57;5.85;;;4.15;;
53666;SDS011;39568;51.026;5.468;2023-06-19T02:37:25;4.68;;;3.30;;
53666;SDS011;39568;51.026;5.468;2023-06-19T02:39:52;3.85;;;3.55;;
53666;SDS011;39568;51.026;5.468;2023-06-19T02:42:18;6.50;;;3.08;;
53666;SDS011;39568;51.026;5.468;2023-06-19T02:44:45;3.22;;;2.92;;
53666;SDS011;39568;51.026;5.468;2023-06-19T02:47:17;3.50;;;3.20;;
53666;SDS011;39568;51.026;5.468;2023-06-19T02:49:44;3.57;;;3.37;;
53666;SDS011;39568;51.026;5.468;2023-06-19T02:52:11;9.50;;;3.35;;
53666;SDS011;39568;51.026;5.468;2023-06-19T02:54:37;3.50;;;3.20;;
53666;SDS011;39568;51.026;5.468;2023-06-19T02:57:07;4.95;;;4.30;;
53666;SDS011;39568;51.026;5.468;2023-06-19T02:59:34;4.05;;;3.78;;
53666;SDS011;39568;51.026;5.468;2023-06-19T03:02:01;14.10;;;3.70;;
53666;SDS011;39568;51.026;5.468;2023-06-19T03:04:29;4.85;;;4.45;;
53666;SDS011;39568;51.026;5.468;2023-06-19T03:06:56;8.93;;;3.88;;
53666;SDS011;39568;51.026;5.468;2023-06-19T03:09:23;7.63;;;4.18;;
53666;SDS011;39568;51.026;5.468;2023-06-19T03:11:51;4.20;;;3.70;;
53666;SDS011;39568;51.026;5.468;2023-06-19T03:14:18;6.75;;;5.05;;
53666;SDS011;39568;51.026;5.468;2023-06-19T03:16:48;6.05;;;2.90;;
53666;SDS011;39568;51.026;5.468;2023-06-19T03:19:20;8.02;;;3.88;;
53666;SDS011;39568;51.026;5.468;2023-06-19T03:21:48;3.85;;;3.55;;
53666;SDS011;39568;51.026;5.468;2023-06-19T03:24:14;4.00;;;3.63;;
53666;SDS011;39568;51.026;5.468;2023-06-19T03:26:41;4.45;;;4.10;;
53666;SDS011;39568;51.026;5.468;2023-06-19T03:29:08;4.90;;;4.43;;
53666;SDS011;39568;51.026;5.468;2023-06-19T03:31:35;4.00;;;3.63;;
53666;SDS011;39568;51.026;5.468;2023-06-19T03:34:04;4.95;;;4.00;;
53666;SDS011;39568;51.026;5.468;2023-06-19T03:36:31;4.78;;;4.05;;
53666;SDS011;39568;51.026;5.468;2023-06-19T03:39:02;10.13;;;4.43;;
53666;SDS011;39568;51.026;5.468;2023-06-19T03:41:28;7.93;;;4.13;;
53666;SDS011;39568;51.026;5.468;2023-06-19T03:43:55;4.05;;;3.65;;
53666;SDS011;39568;51.026;5.468;2023-06-19T03:46:22;3.63;;;3.42;;
53666;SDS011;39568;51.026;5.468;2023-06-19T03:48:49;4.82;;;3.88;;
53666;SDS011;39568;51.026;5.468;2023-06-19T03:51:16;5.75;;;3.22;;
53666;SDS011;39568;51.026;5.468;2023-06-19T03:53:44;10.80;;;3.70;;
53666;SDS011;39568;51.026;5.468;2023-06-19T03:56:18;4.13;;;3.90;;
53666;SDS011;39568;51.026;5.468;2023-06-19T03:58:44;4.40;;;3.38;;
53666;SDS011;39568;51.026;5.468;2023-06-19T04:01:11;4.50;;;4.10;;
53666;SDS011;39568;51.026;5.468;2023-06-19T04:03:38;6.90;;;3.50;;
53666;SDS011;39568;51.026;5.468;2023-06-19T04:06:04;8.55;;;3.40;;
53666;SDS011;39568;51.026;5.468;2023-06-19T04:08:32;4.07;;;3.80;;
53666;SDS011;39568;51.026;5.468;2023-06-19T04:11:00;4.35;;;3.63;;
53666;SDS011;39568;51.026;5.468;2023-06-19T04:13:28;6.57;;;3.90;;
53666;SDS011;39568;51.026;5.468;2023-06-19T04:15:55;4.28;;;3.15;;
53666;SDS011;39568;51.026;5.468;2023-06-19T04:18:24;5.82;;;4.00;;
53666;SDS011;39568;51.026;5.468;2023-06-19T04:20:53;4.28;;;3.42;;
53666;SDS011;39568;51.026;5.468;2023-06-19T04:23:24;5.00;;;3.75;;
53666;SDS011;39568;51.026;5.468;2023-06-19T04:25:57;5.13;;;3.53;;
53666;SDS011;39568;51.026;5.468;2023-06-19T04:28:25;5.40;;;3.30;;
53666;SDS011;39568;51.026;5.468;2023-06-19T04:30:55;5.10;;;4.47;;
53666;SDS011;39568;51.026;5.468;2023-06-19T04:33:26;6.13;;;4.00;;
53666;SDS011;39568;51.026;5.468;2023-06-19T04:35:54;6.13;;;4.63;;
53666;SDS011;39568;51.026;5.468;2023-06-19T04:38:20;13.93;;;5.05;;
53666;SDS011;39568;51.026;5.468;2023-06-19T04:40:50;6.25;;;5.60;;
53666;SDS011;39568;51.026;5.468;2023-06-19T04:43:17;16.73;;;5.63;;
53666;SDS011;39568;51.026;5.468;2023-06-19T04:45:44;9.63;;;5.80;;
53666;SDS011;39568;51.026;5.468;2023-06-19T04:48:17;8.25;;;6.20;;
53666;SDS011;39568;51.026;5.468;2023-06-19T04:50:44;9.13;;;5.93;;
53666;SDS011;39568;51.026;5.468;2023-06-19T04:53:11;15.30;;;7.22;;
53666;SDS011;39568;51.026;5.468;2023-06-19T04:55:38;10.13;;;8.07;;
53666;SDS011;39568;51.026;5.468;2023-06-19T04:58:04;14.32;;;9.20;;
53666;SDS011;39568;51.026;5.468;2023-06-19T05:00:33;9.88;;;8.98;;
53666;SDS011;39568;51.026;5.468;2023-06-19T05:03:02;9.30;;;7.35;;
53666;SDS011;39568;51.026;5.468;2023-06-19T05:05:30;13.40;;;9.85;;
53666;SDS011;39568;51.026;5.468;2023-06-19T05:07:57;14.40;;;9.48;;
53666;SDS011;39568;51.026;5.468;2023-06-19T05:10:24;22.77;;;10.13;;
53666;SDS011;39568;51.026;5.468;2023-06-19T05:12:51;12.85;;;9.32;;
53666;SDS011;39568;51.026;5.468;2023-06-19T05:15:18;18.10;;;10.40;;
53666;SDS011;39568;51.026;5.468;2023-06-19T05:17:45;11.85;;;9.90;;
53666;SDS011;39568;51.026;5.468;2023-06-19T05:20:12;15.23;;;10.80;;
53666;SDS011;39568;51.026;5.468;2023-06-19T05:22:41;11.60;;;10.40;;
53666;SDS011;39568;51.026;5.468;2023-06-19T05:25:09;11.63;;;10.63;;
53666;SDS011;39568;51.026;5.468;2023-06-19T05:27:35;12.82;;;11.52;;
53666;SDS011;39568;51.026;5.468;2023-06-19T05:30:05;11.32;;;10.30;;
53666;SDS011;39568;51.026;5.468;2023-06-19T05:32:33;15.43;;;11.48;;
53666;SDS011;39568;51.026;5.468;2023-06-19T05:35:00;13.32;;;11.93;;
53666;SDS011;39568;51.026;5.468;2023-06-19T05:37:27;12.60;;;11.38;;
53666;SDS011;39568;51.026;5.468;2023-06-19T05:39:56;13.32;;;11.45;;
53666;SDS011;39568;51.026;5.468;2023-06-19T05:42:24;14.40;;;9.65;;
53666;SDS011;39568;51.026;5.468;2023-06-19T05:44:51;15.48;;;10.02;;
53666;SDS011;39568;51.026;5.468;2023-06-19T05:47:21;13.30;;;9.88;;
53666;SDS011;39568;51.026;5.468;2023-06-19T05:49:50;13.05;;;9.30;;
53666;SDS011;39568;51.026;5.468;2023-06-19T05:52:17;15.65;;;7.13;;
53666;SDS011;39568;51.026;5.468;2023-06-19T05:54:47;9.13;;;7.78;;
53666;SDS011;39568;51.026;5.468;2023-06-19T05:57:15;14.68;;;8.35;;
53666;SDS011;39568;51.026;5.468;2023-06-19T05:59:45;7.30;;;6.15;;
53666;SDS011;39568;51.026;5.468;2023-06-19T06:02:18;15.88;;;9.13;;
53666;SDS011;39568;51.026;5.468;2023-06-19T06:04:46;9.13;;;8.10;;
53666;SDS011;39568;51.026;5.468;2023-06-19T06:07:13;10.57;;;8.32;;
53666;SDS011;39568;51.026;5.468;2023-06-19T06:09:39;7.70;;;6.95;;
53666;SDS011;39568;51.026;5.468;2023-06-19T06:12:06;9.52;;;6.38;;
53666;SDS011;39568;51.026;5.468;2023-06-19T06:14:36;8.77;;;7.88;;
53666;SDS011;39568;51.026;5.468;2023-06-19T06:17:06;5.72;;;4.63;;
53666;SDS011;39568;51.026;5.468;2023-06-19T06:19:35;7.72;;;5.20;;
53666;SDS011;39568;51.026;5.468;2023-06-19T06:22:03;6.88;;;5.18;;
53666;SDS011;39568;51.026;5.468;2023-06-19T06:24:29;10.52;;;4.95;;
53666;SDS011;39568;51.026;5.468;2023-06-19T06:26:56;4.70;;;4.15;;
53666;SDS011;39568;51.026;5.468;2023-06-19T06:29:24;5.43;;;4.18;;
53666;SDS011;39568;51.026;5.468;2023-06-19T06:32:02;8.23;;;5.90;;
53666;SDS011;39568;51.026;5.468;2023-06-19T06:34:29;4.13;;;3.72;;
53666;SDS011;39568;51.026;5.468;2023-06-19T06:36:55;4.75;;;4.45;;
53666;SDS011;39568;51.026;5.468;2023-06-19T06:39:23;6.88;;;4.03;;
53666;SDS011;39568;51.026;5.468;2023-06-19T06:41:51;4.55;;;4.15;;
53666;SDS011;39568;51.026;5.468;2023-06-19T06:44:17;8.07;;;4.72;;
53666;SDS011;39568;51.026;5.468;2023-06-19T06:46:44;7.05;;;4.68;;
53666;SDS011;39568;51.026;5.468;2023-06-19T06:49:13;5.90;;;5.45;;
53666;SDS011;39568;51.026;5.468;2023-06-19T06:51:42;5.85;;;4.63;;
53666;SDS011;39568;51.026;5.468;2023-06-19T06:54:08;5.82;;;4.80;;
53666;SDS011;39568;51.026;5.468;2023-06-19T06:56:35;6.82;;;5.93;;
53666;SDS011;39568;51.026;5.468;2023-06-19T06:59:08;7.70;;;4.65;;
53666;SDS011;39568;51.026;5.468;2023-06-19T07:01:36;4.82;;;4.53;;
53666;SDS011;39568;51.026;5.468;2023-06-19T07:04:06;4.53;;;4.22;;
53666;SDS011;39568;51.026;5.468;2023-06-19T07:06:37;9.05;;;5.57;;
53666;SDS011;39568;51.026;5.468;2023-06-19T07:09:05;9.55;;;5.63;;
53666;SDS011;39568;51.026;5.468;2023-06-19T07:11:33;6.65;;;4.35;;
53666;SDS011;39568;51.026;5.468;2023-06-19T07:14:01;8.40;;;4.43;;
53666;SDS011;39568;51.026;5.468;2023-06-19T07:16:28;5.25;;;4.82;;
53666;SDS011;39568;51.026;5.468;2023-06-19T07:18:55;9.20;;;4.03;;
53666;SDS011;39568;51.026;5.468;2023-06-19T07:21:21;6.90;;;5.38;;
53666;SDS011;39568;51.026;5.468;2023-06-19T07:23:49;5.60;;;5.10;;
53666;SDS011;39568;51.026;5.468;2023-06-19T07:26:16;5.80;;;4.93;;
53666;SDS011;39568;51.026;5.468;2023-06-19T07:28:43;6.05;;;4.75;;
53666;SDS011;39568;51.026;5.468;2023-06-19T07:31:10;5.00;;;4.70;;
53666;SDS011;39568;51.026;5.468;2023-06-19T07:33:36;4.57;;;4.22;;
53666;SDS011;39568;51.026;5.468;2023-06-19T07:36:09;7.05;;;4.95;;
53666;SDS011;39568;51.026;5.468;2023-06-19T07:38:39;7.13;;;6.40;;
53666;SDS011;39568;51.026;5.468;2023-06-19T07:41:08;6.68;;;5.22;;
53666;SDS011;39568;51.026;5.468;2023-06-19T07:43:36;5.10;;;4.80;;
53666;SDS011;39568;51.026;5.468;2023-06-19T07:46:03;9.73;;;6.38;;
53666;SDS011;39568;51.026;5.468;2023-06-19T07:48:30;9.38;;;7.50;;
53666;SDS011;39568;51.026;5.468;2023-06-19T07:50:57;6.85;;;5.68;;
53666;SDS011;39568;51.026;5.468;2023-06-19T07:53:24;6.95;;;6.30;;
53666;SDS011;39568;51.026;5.468;2023-06-19T07:55:50;5.47;;;4.97;;
53666;SDS011;39568;51.026;5.468;2023-06-19T07:58:20;7.20;;;6.03;;
53666;SDS011;39568;51.026;5.468;2023-06-19T08:00:47;6.03;;;5.50;;
53666;SDS011;39568;51.026;5.468;2023-06-19T08:03:14;5.80;;;4.93;;
53666;SDS011;39568;51.026;5.468;2023-06-19T08:05:40;6.32;;;4.97;;
53666;SDS011;39568;51.026;5.468;2023-06-19T08:08:11;6.67;;;6.17;;
53666;SDS011;39568;51.026;5.468;2023-06-19T08:10:39;6.13;;;5.47;;
53666;SDS011;39568;51.026;5.468;2023-06-19T08:13:09;5.75;;;5.25;;
53666;SDS011;39568;51.026;5.468;2023-06-19T08:15:38;12.13;;;5.20;;
53666;SDS011;39568;51.026;5.468;2023-06-19T08:18:05;10.05;;;5.38;;
53666;SDS011;39568;51.026;5.468;2023-06-19T08:20:32;6.20;;;5.63;;
53666;SDS011;39568;51.026;5.468;2023-06-19T08:23:05;9.90;;;6.75;;
53666;SDS011;39568;51.026;5.468;2023-06-19T08:25:32;9.13;;;7.10;;
53666;SDS011;39568;51.026;5.468;2023-06-19T08:27:59;7.40;;;6.18;;
53666;SDS011;39568;51.026;5.468;2023-06-19T08:30:25;5.97;;;5.63;;
53666;SDS011;39568;51.026;5.468;2023-06-19T08:32:53;16.80;;;6.93;;
53666;SDS011;39568;51.026;5.468;2023-06-19T08:35:20;7.68;;;5.72;;
53666;SDS011;39568;51.026;5.468;2023-06-19T08:37:49;8.02;;;7.25;;
53666;SDS011;39568;51.026;5.468;2023-06-19T08:40:15;7.65;;;7.03;;
53666;SDS011;39568;51.026;5.468;2023-06-19T08:42:42;9.02;;;7.95;;
53666;SDS011;39568;51.026;5.468;2023-06-19T08:45:09;7.93;;;7.15;;
53666;SDS011;39568;51.026;5.468;2023-06-19T08:47:36;7.60;;;6.05;;
53666;SDS011;39568;51.026;5.468;2023-06-19T08:50:06;8.15;;;6.03;;
53666;SDS011;39568;51.026;5.468;2023-06-19T08:52:33;7.55;;;6.45;;
53666;SDS011;39568;51.026;5.468;2023-06-19T08:55:00;9.90;;;6.60;;
53666;SDS011;39568;51.026;5.468;2023-06-19T08:57:32;8.52;;;7.75;;
53666;SDS011;39568;51.026;5.468;2023-06-19T09:00:01;6.88;;;6.22;;
53666;SDS011;39568;51.026;5.468;2023-06-19T09:02:39;5.50;;;5.03;;
53666;SDS011;39568;51.026;5.468;2023-06-19T09:05:13;7.97;;;5.53;;
53666;SDS011;39568;51.026;5.468;2023-06-19T09:07:41;6.55;;;5.93;;
53666;SDS011;39568;51.026;5.468;2023-06-19T09:10:12;7.20;;;6.50;;
53666;SDS011;39568;51.026;5.468;2023-06-19T09:12:43;6.78;;;4.75;;
53666;SDS011;39568;51.026;5.468;2023-06-19T09:15:13;6.53;;;5.93;;
53666;SDS011;39568;51.026;5.468;2023-06-19T09:17:41;6.97;;;6.38;;
53666;SDS011;39568;51.026;5.468;2023-06-19T09:20:09;5.75;;;5.03;;
53666;SDS011;39568;51.026;5.468;2023-06-19T09:22:39;5.03;;;4.57;;
53666;SDS011;39568;51.026;5.468;2023-06-19T09:25:06;3.88;;;3.58;;
53666;SDS011;39568;51.026;5.468;2023-06-19T09:30:06;11.88;;;4.40;;
53666;SDS011;39568;51.026;5.468;2023-06-19T09:32:33;4.85;;;4.45;;
53666;SDS011;39568;51.026;5.468;2023-06-19T09:35:01;7.50;;;4.57;;
53666;SDS011;39568;51.026;5.468;2023-06-19T09:37:30;4.85;;;3.55;;
53666;SDS011;39568;51.026;5.468;2023-06-19T09:39:58;5.55;;;4.55;;
53666;SDS011;39568;51.026;5.468;2023-06-19T09:42:27;4.20;;;3.80;;
53666;SDS011;39568;51.026;5.468;2023-06-19T09:44:58;8.70;;;5.50;;
53666;SDS011;39568;51.026;5.468;2023-06-19T09:47:31;5.53;;;5.03;;
53666;SDS011;39568;51.026;5.468;2023-06-19T09:50:01;17.45;;;5.97;;
53666;SDS011;39568;51.026;5.468;2023-06-19T09:52:32;9.88;;;5.38;;
53666;SDS011;39568;51.026;5.468;2023-06-19T09:55:01;7.93;;;4.13;;
53666;SDS011;39568;51.026;5.468;2023-06-19T09:57:29;8.93;;;4.85;;
53666;SDS011;39568;51.026;5.468;2023-06-19T09:59:57;8.18;;;5.50;;
53666;SDS011;39568;51.026;5.468;2023-06-19T10:02:32;5.63;;;5.13;;
53666;SDS011;39568;51.026;5.468;2023-06-19T10:04:58;5.05;;;4.63;;
53666;SDS011;39568;51.026;5.468;2023-06-19T10:07:32;6.88;;;4.97;;
53666;SDS011;39568;51.026;5.468;2023-06-19T10:10:06;12.80;;;5.15;;
53666;SDS011;39568;51.026;5.468;2023-06-19T10:12:34;4.10;;;3.80;;
53666;SDS011;39568;51.026;5.468;2023-06-19T10:15:09;4.88;;;4.47;;
53666;SDS011;39568;51.026;5.468;2023-06-19T10:17:43;5.63;;;5.13;;
53666;SDS011;39568;51.026;5.468;2023-06-19T10:20:27;6.32;;;5.43;;
53666;SDS011;39568;51.026;5.468;2023-06-19T10:22:59;5.10;;;4.70;;
53666;SDS011;39568;51.026;5.468;2023-06-19T10:25:29;5.75;;;4.95;;
53666;SDS011;39568;51.026;5.468;2023-06-19T10:27:58;5.00;;;4.65;;
53666;SDS011;39568;51.026;5.468;2023-06-19T10:30:25;5.95;;;5.03;;
53666;SDS011;39568;51.026;5.468;2023-06-19T10:32:52;8.18;;;5.13;;
53666;SDS011;39568;51.026;5.468;2023-06-19T10:35:22;6.90;;;5.22;;
53666;SDS011;39568;51.026;5.468;2023-06-19T10:37:49;22.30;;;5.38;;
53666;SDS011;39568;51.026;5.468;2023-06-19T10:40:19;6.13;;;4.75;;
53666;SDS011;39568;51.026;5.468;2023-06-19T10:42:46;4.80;;;4.35;;
53666;SDS011;39568;51.026;5.468;2023-06-19T10:45:14;10.77;;;3.67;;
53666;SDS011;39568;51.026;5.468;2023-06-19T10:47:46;4.63;;;4.28;;
53666;SDS011;39568;51.026;5.468;2023-06-19T10:50:13;5.80;;;4.63;;
53666;SDS011;39568;51.026;5.468;2023-06-19T10:52:41;6.10;;;5.55;;
53666;SDS011;39568;51.026;5.468;2023-06-19T10:55:09;6.45;;;4.78;;
53666;SDS011;39568;51.026;5.468;2023-06-19T10:57:38;7.55;;;4.20;;
53666;SDS011;39568;51.026;5.468;2023-06-19T11:00:09;5.35;;;4.85;;
53666;SDS011;39568;51.026;5.468;2023-06-19T11:02:38;7.40;;;5.55;;
53666;SDS011;39568;51.026;5.468;2023-06-19T11:05:08;7.90;;;5.03;;
53666;SDS011;39568;51.026;5.468;2023-06-19T11:07:37;8.88;;;5.15;;
53666;SDS011;39568;51.026;5.468;2023-06-19T11:10:04;8.23;;;5.03;;
53666;SDS011;39568;51.026;5.468;2023-06-19T11:12:32;6.13;;;3.58;;
53666;SDS011;39568;51.026;5.468;2023-06-19T11:15:02;6.90;;;4.63;;
53666;SDS011;39568;51.026;5.468;2023-06-19T11:17:30;11.90;;;4.88;;
53666;SDS011;39568;51.026;5.468;2023-06-19T11:20:00;6.25;;;4.50;;
53666;SDS011;39568;51.026;5.468;2023-06-19T11:22:36;5.32;;;4.10;;
53666;SDS011;39568;51.026;5.468;2023-06-19T11:25:04;7.03;;;4.95;;
53666;SDS011;39568;51.026;5.468;2023-06-19T11:27:32;10.40;;;4.80;;
53666;SDS011;39568;51.026;5.468;2023-06-19T11:30:01;7.25;;;5.47;;
53666;SDS011;39568;51.026;5.468;2023-06-19T11:32:30;6.22;;;4.50;;
53666;SDS011;39568;51.026;5.468;2023-06-19T11:35:04;7.90;;;4.43;;
53666;SDS011;39568;51.026;5.468;2023-06-19T11:37:34;4.43;;;4.00;;
53666;SDS011;39568;51.026;5.468;2023-06-19T11:40:06;11.50;;;4.82;;
53666;SDS011;39568;51.026;5.468;2023-06-19T11:42:47;6.07;;;4.30;;
53666;SDS011;39568;51.026;5.468;2023-06-19T11:45:18;5.57;;;4.75;;
53666;SDS011;39568;51.026;5.468;2023-06-19T11:47:45;4.75;;;4.28;;
53666;SDS011;39568;51.026;5.468;2023-06-19T11:50:12;7.72;;;4.50;;
53666;SDS011;39568;51.026;5.468;2023-06-19T11:52:41;4.65;;;3.78;;
53666;SDS011;39568;51.026;5.468;2023-06-19T11:55:09;4.13;;;3.83;;
53666;SDS011;39568;51.026;5.468;2023-06-19T11:57:36;5.47;;;4.97;;
53666;SDS011;39568;51.026;5.468;2023-06-19T12:00:03;6.90;;;6.00;;
53666;SDS011;39568;51.026;5.468;2023-06-19T12:02:36;6.80;;;5.35;;
53666;SDS011;39568;51.026;5.468;2023-06-19T12:05:05;6.15;;;5.55;;
53666;SDS011;39568;51.026;5.468;2023-06-19T12:07:34;5.32;;;4.82;;
53666;SDS011;39568;51.026;5.468;2023-06-19T12:10:03;5.45;;;4.90;;
53666;SDS011;39568;51.026;5.468;2023-06-19T12:12:35;10.10;;;5.88;;
53666;SDS011;39568;51.026;5.468;2023-06-19T12:15:02;4.55;;;3.58;;
53666;SDS011;39568;51.026;5.468;2023-06-19T12:17:30;7.47;;;5.30;;
53666;SDS011;39568;51.026;5.468;2023-06-19T12:20:00;5.50;;;4.88;;
53666;SDS011;39568;51.026;5.468;2023-06-19T12:22:27;9.32;;;4.18;;
53666;SDS011;39568;51.026;5.468;2023-06-19T12:24:56;7.10;;;5.40;;
53666;SDS011;39568;51.026;5.468;2023-06-19T12:27:23;11.40;;;5.85;;
53666;SDS011;39568;51.026;5.468;2023-06-19T12:29:52;6.05;;;5.35;;
53666;SDS011;39568;51.026;5.468;2023-06-19T12:32:20;6.00;;;5.15;;
53666;SDS011;39568;51.026;5.468;2023-06-19T12:34:46;5.60;;;5.10;;
53666;SDS011;39568;51.026;5.468;2023-06-19T12:37:16;5.25;;;4.22;;
53666;SDS011;39568;51.026;5.468;2023-06-19T12:39:46;5.53;;;5.10;;
53666;SDS011;39568;51.026;5.468;2023-06-19T12:42:12;10.07;;;3.58;;
53666;SDS011;39568;51.026;5.468;2023-06-19T12:44:39;22.88;;;5.53;;
53666;SDS011;39568;51.026;5.468;2023-06-19T12:47:09;4.45;;;4.15;;
53666;SDS011;39568;51.026;5.468;2023-06-19T12:49:36;7.25;;;4.75;;
53666;SDS011;39568;51.026;5.468;2023-06-19T12:52:04;4.82;;;4.18;;
53666;SDS011;39568;51.026;5.468;2023-06-19T12:54:33;6.90;;;3.88;;
53666;SDS011;39568;51.026;5.468;2023-06-19T12:57:00;4.47;;;4.13;;
53666;SDS011;39568;51.026;5.468;2023-06-19T12:59:27;18.95;;;4.57;;
53666;SDS011;39568;51.026;5.468;2023-06-19T13:01:54;4.43;;;4.00;;
53666;SDS011;39568;51.026;5.468;2023-06-19T13:04:22;4.55;;;4.10;;
53666;SDS011;39568;51.026;5.468;2023-06-19T13:06:50;9.32;;;5.35;;
53666;SDS011;39568;51.026;5.468;2023-06-19T13:09:16;10.38;;;4.45;;
53666;SDS011;39568;51.026;5.468;2023-06-19T13:11:45;7.03;;;4.30;;
53666;SDS011;39568;51.026;5.468;2023-06-19T13:14:14;4.90;;;4.53;;
53666;SDS011;39568;51.026;5.468;2023-06-19T13:16:44;4.35;;;4.05;;
53666;SDS011;39568;51.026;5.468;2023-06-19T13:19:11;4.25;;;3.83;;
53666;SDS011;39568;51.026;5.468;2023-06-19T13:21:37;5.80;;;4.38;;
53666;SDS011;39568;51.026;5.468;2023-06-19T13:24:04;7.43;;;4.63;;
53666;SDS011;39568;51.026;5.468;2023-06-19T13:26:31;5.65;;;4.65;;
53666;SDS011;39568;51.026;5.468;2023-06-19T13:28:59;4.68;;;4.28;;
53666;SDS011;39568;51.026;5.468;2023-06-19T13:31:26;4.57;;;4.25;;
53666;SDS011;39568;51.026;5.468;2023-06-19T13:33:53;6.07;;;4.30;;
53666;SDS011;39568;51.026;5.468;2023-06-19T13:36:19;4.78;;;4.22;;
53666;SDS011;39568;51.026;5.468;2023-06-19T13:38:48;7.03;;;4.40;;
53666;SDS011;39568;51.026;5.468;2023-06-19T13:41:14;7.85;;;4.90;;
53666;SDS011;39568;51.026;5.468;2023-06-19T13:43:41;5.32;;;4.55;;
53666;SDS011;39568;51.026;5.468;2023-06-19T13:46:12;10.45;;;4.93;;
53666;SDS011;39568;51.026;5.468;2023-06-19T13:48:41;12.77;;;4.63;;
53666;SDS011;39568;51.026;5.468;2023-06-19T13:51:07;7.05;;;4.70;;
53666;SDS011;39568;51.026;5.468;2023-06-19T13:53:40;23.75;;;4.82;;
53666;SDS011;39568;51.026;5.468;2023-06-19T13:56:09;4.57;;;4.17;;
53666;SDS011;39568;51.026;5.468;2023-06-19T13:58:36;4.22;;;3.75;;
53666;SDS011;39568;51.026;5.468;2023-06-19T14:01:06;3.30;;;2.92;;
53666;SDS011;39568;51.026;5.468;2023-06-19T14:06:05;3.45;;;2.72;;
53666;SDS011;39568;51.026;5.468;2023-06-19T14:08:32;4.25;;;3.00;;
53666;SDS011;39568;51.026;5.468;2023-06-19T14:10:59;5.25;;;4.13;;
53666;SDS011;39568;51.026;5.468;2023-06-19T14:13:25;5.40;;;4.22;;
53666;SDS011;39568;51.026;5.468;2023-06-19T14:15:53;4.78;;;4.22;;
53666;SDS011;39568;51.026;5.468;2023-06-19T14:18:22;5.20;;;4.38;;
53666;SDS011;39568;51.026;5.468;2023-06-19T14:20:50;7.10;;;4.70;;
53666;SDS011;39568;51.026;5.468;2023-06-19T14:23:21;4.97;;;4.45;;
53666;SDS011;39568;51.026;5.468;2023-06-19T14:25:48;6.07;;;4.18;;
53666;SDS011;39568;51.026;5.468;2023-06-19T14:28:15;3.67;;;3.47;;
53666;SDS011;39568;51.026;5.468;2023-06-19T14:30:41;3.17;;;2.72;;
53666;SDS011;39568;51.026;5.468;2023-06-19T14:33:08;4.28;;;3.90;;
53666;SDS011;39568;51.026;5.468;2023-06-19T14:35:40;4.22;;;3.92;;
53666;SDS011;39568;51.026;5.468;2023-06-19T14:38:14;4.05;;;3.75;;
53666;SDS011;39568;51.026;5.468;2023-06-19T14:40:41;3.63;;;3.38;;
53666;SDS011;39568;51.026;5.468;2023-06-19T14:43:09;5.18;;;3.40;;
53666;SDS011;39568;51.026;5.468;2023-06-19T14:45:36;4.20;;;3.80;;
53666;SDS011;39568;51.026;5.468;2023-06-19T14:48:04;7.50;;;3.38;;
53666;SDS011;39568;51.026;5.468;2023-06-19T14:50:31;5.45;;;3.78;;
53666;SDS011;39568;51.026;5.468;2023-06-19T14:52:58;3.40;;;3.17;;
53666;SDS011;39568;51.026;5.468;2023-06-19T14:55:29;7.38;;;3.85;;
53666;SDS011;39568;51.026;5.468;2023-06-19T14:57:56;4.90;;;3.58;;
53666;SDS011;39568;51.026;5.468;2023-06-19T15:00:27;4.35;;;3.83;;